createdAt,value
2022-07-29T00:00:56.364Z,0.00
2022-07-29T00:01:56.553Z,0.00
2022-07-29T00:02:56.731Z,0.00
2022-07-29T00:03:56.950Z,0.00
2022-07-29T00:04:57.045Z,0.00
2022-07-29T00:05:57.238Z,0.00
2022-07-29T00:06:57.371Z,0.00
2022-07-29T00:07:57.564Z,0.00
2022-07-29T00:08:57.734Z,0.00
2022-07-29T00:09:57.893Z,0.00
2022-07-29T00:10:58.058Z,0.00
2022-07-29T00:11:58.215Z,0.00
2022-07-29T00:12:58.375Z,0.00
2022-07-29T00:13:58.584Z,0.00
2022-07-29T00:14:58.744Z,0.00
2022-07-29T00:15:58.921Z,0.00
2022-07-29T00:17:00.094Z,0.00
2022-07-29T00:17:59.275Z,0.00
2022-07-29T00:19:02.112Z,0.00
2022-07-29T00:19:59.614Z,0.00
2022-07-29T00:20:59.776Z,0.00
2022-07-29T00:21:59.934Z,0.00
2022-07-29T00:23:00.094Z,0.00
2022-07-29T00:24:00.273Z,0.00
2022-07-29T00:25:00.423Z,0.00
2022-07-29T00:26:00.594Z,0.00
2022-07-29T00:27:00.757Z,0.00
2022-07-29T00:28:00.917Z,0.00
2022-07-29T00:29:31.121Z,0.00
2022-07-29T00:30:02.246Z,0.00
2022-07-29T00:31:01.476Z,0.00
2022-07-29T00:32:01.710Z,0.00
2022-07-29T00:33:01.778Z,0.00
2022-07-29T00:34:01.936Z,0.00
2022-07-29T00:35:02.094Z,0.00
2022-07-29T00:36:02.256Z,0.00
2022-07-29T00:37:02.417Z,0.00
2022-07-29T00:38:02.614Z,0.00
2022-07-29T00:39:02.806Z,0.00
2022-07-29T00:40:02.967Z,0.00
2022-07-29T00:41:03.103Z,0.00
2022-07-29T00:42:03.265Z,0.00
2022-07-29T00:43:03.424Z,0.00
2022-07-29T00:44:03.590Z,0.00
2022-07-29T00:45:03.766Z,0.00
2022-07-29T00:46:03.932Z,0.00
2022-07-29T00:47:04.163Z,0.00
2022-07-29T00:48:04.243Z,0.00
2022-07-29T00:49:04.428Z,0.00
2022-07-29T00:50:04.576Z,0.00
2022-07-29T00:51:04.725Z,0.00
2022-07-29T00:52:04.916Z,0.00
2022-07-29T00:53:05.075Z,0.00
2022-07-29T00:54:05.243Z,0.00
2022-07-29T00:55:08.631Z,0.00
2022-07-29T00:56:05.565Z,0.00
2022-07-29T00:57:06.598Z,0.00
2022-07-29T00:58:05.892Z,0.00
2022-07-29T00:59:06.055Z,0.00
2022-07-29T01:00:06.235Z,0.00
2022-07-29T01:01:06.424Z,0.00
2022-07-29T01:02:06.645Z,0.00
2022-07-29T01:03:06.746Z,0.00
2022-07-29T01:04:06.955Z,0.00
2022-07-29T01:05:07.115Z,0.00
2022-07-29T01:06:07.314Z,0.00
2022-07-29T01:07:07.465Z,0.00
2022-07-29T01:08:07.661Z,0.00
2022-07-29T01:09:07.856Z,0.00
2022-07-29T01:10:08.016Z,0.00
2022-07-29T01:11:08.174Z,0.00
2022-07-29T01:12:08.347Z,0.00
2022-07-29T01:13:08.639Z,0.00
2022-07-29T01:14:08.686Z,0.00
2022-07-29T01:15:08.841Z,0.00
2022-07-29T01:16:09.064Z,0.00
2022-07-29T01:17:09.205Z,0.00
2022-07-29T01:18:09.366Z,0.00
2022-07-29T01:19:09.559Z,0.00
2022-07-29T01:20:09.715Z,0.00
2022-07-29T01:21:09.865Z,0.00
2022-07-29T01:22:10.066Z,0.00
2022-07-29T01:23:10.228Z,0.00
2022-07-29T01:24:10.399Z,0.00
2022-07-29T01:25:10.567Z,0.00
2022-07-29T01:26:10.726Z,0.00
2022-07-29T01:27:10.899Z,0.00
2022-07-29T01:28:11.075Z,0.00
2022-07-29T01:29:11.245Z,0.00
2022-07-29T01:30:11.428Z,0.00
2022-07-29T01:31:11.613Z,0.00
2022-07-29T01:32:28.005Z,0.00
2022-07-29T01:33:12.936Z,0.00
2022-07-29T01:34:12.235Z,0.00
2022-07-29T01:35:12.297Z,0.00
2022-07-29T01:36:12.459Z,0.00
2022-07-29T01:37:12.616Z,0.00
2022-07-29T01:38:12.777Z,0.00
2022-07-29T01:39:12.954Z,0.00
2022-07-29T01:40:13.113Z,0.00
2022-07-29T01:41:13.284Z,0.00
2022-07-29T01:42:13.464Z,0.00
2022-07-29T01:43:13.616Z,0.00
2022-07-29T01:44:14.078Z,0.00
2022-07-29T01:45:13.957Z,0.00
2022-07-29T01:46:14.139Z,0.00
2022-07-29T01:47:14.266Z,0.00
2022-07-29T01:48:14.466Z,0.00
2022-07-29T01:49:14.705Z,0.00
2022-07-29T01:50:14.789Z,0.00
2022-07-29T01:51:14.947Z,0.00
2022-07-29T01:52:15.107Z,0.00
2022-07-29T01:53:15.289Z,0.00
2022-07-29T01:54:15.822Z,0.00
2022-07-29T01:55:15.615Z,0.00
2022-07-29T01:56:15.784Z,0.00
2022-07-29T01:57:15.927Z,0.00
2022-07-29T01:58:16.127Z,0.00
2022-07-29T01:59:16.317Z,0.00
2022-07-29T02:00:16.479Z,0.00
2022-07-29T02:01:16.642Z,0.00
2022-07-29T02:02:16.839Z,0.00
2022-07-29T02:03:16.956Z,0.00
2022-07-29T02:04:29.353Z,0.00
2022-07-29T02:05:18.357Z,0.00
2022-07-29T02:06:17.457Z,0.00
2022-07-29T02:07:17.616Z,0.00
2022-07-29T02:08:17.779Z,0.00
2022-07-29T02:09:17.946Z,0.00
2022-07-29T02:10:18.113Z,0.00
2022-07-29T02:11:18.294Z,0.00
2022-07-29T02:12:18.448Z,0.00
2022-07-29T02:13:18.607Z,0.00
2022-07-29T02:14:18.944Z,0.00
2022-07-29T02:15:18.937Z,0.00
2022-07-29T02:16:19.140Z,0.00
2022-07-29T02:17:19.258Z,0.00
2022-07-29T02:18:19.418Z,0.00
2022-07-29T02:19:19.586Z,0.00
2022-07-29T02:20:19.748Z,0.00
2022-07-29T02:21:19.907Z,0.00
2022-07-29T02:22:20.097Z,0.00
2022-07-29T02:23:20.258Z,0.00
2022-07-29T02:24:20.434Z,0.00
2022-07-29T02:25:20.587Z,0.00
2022-07-29T02:26:20.786Z,0.00
2022-07-29T02:27:20.937Z,0.00
2022-07-29T02:28:21.137Z,0.00
2022-07-29T02:29:21.308Z,0.00
2022-07-29T02:30:21.474Z,0.00
2022-07-29T02:31:21.663Z,0.00
2022-07-29T02:32:21.797Z,0.00
2022-07-29T02:33:21.975Z,0.00
2022-07-29T02:34:22.147Z,0.00
2022-07-29T02:35:22.307Z,0.00
2022-07-29T02:36:22.467Z,0.00
2022-07-29T02:37:22.629Z,0.00
2022-07-29T02:38:22.798Z,0.00
2022-07-29T02:39:22.977Z,0.00
2022-07-29T02:40:23.137Z,0.00
2022-07-29T02:41:23.296Z,4.00
2022-07-29T02:42:23.459Z,4.00
2022-07-29T02:43:23.617Z,0.00
2022-07-29T02:44:23.798Z,0.00
2022-07-29T02:45:23.963Z,4.00
2022-07-29T02:46:28.494Z,4.00
2022-07-29T02:47:25.298Z,4.00
2022-07-29T02:48:24.488Z,4.00
2022-07-29T02:49:24.736Z,4.00
2022-07-29T02:50:24.857Z,0.00
2022-07-29T02:51:43.484Z,4.00
2022-07-29T02:52:26.205Z,4.00
2022-07-29T02:53:25.388Z,4.00
2022-07-29T02:54:25.569Z,4.00
2022-07-29T02:55:25.724Z,8.00
2022-07-29T02:56:25.888Z,8.00
2022-07-29T02:57:26.067Z,8.00
2022-07-29T02:58:26.228Z,8.00
2022-07-29T02:59:26.415Z,12.00
2022-07-29T03:00:26.580Z,12.00
2022-07-29T03:01:26.786Z,12.00
2022-07-29T03:02:26.948Z,16.00
2022-07-29T03:03:27.126Z,20.00
2022-07-29T03:04:27.404Z,24.00
2022-07-29T03:05:27.497Z,24.00
2022-07-29T03:06:28.747Z,28.00
2022-07-29T03:07:28.858Z,32.00
2022-07-29T03:08:28.038Z,32.00
2022-07-29T03:09:28.720Z,40.00
2022-07-29T03:10:28.401Z,44.00
2022-07-29T03:11:40.113Z,48.00
2022-07-29T03:12:29.738Z,56.00
2022-07-29T03:13:28.898Z,64.00
2022-07-29T03:14:29.099Z,68.00
2022-07-29T03:15:29.249Z,76.00
2022-07-29T03:16:29.472Z,84.00
2022-07-29T03:17:29.610Z,92.00
2022-07-29T03:18:29.789Z,100.00
2022-07-29T03:19:29.998Z,108.00
2022-07-29T03:20:30.136Z,120.00
2022-07-29T03:21:30.316Z,124.00
2022-07-29T03:22:30.499Z,136.00
2022-07-29T03:23:35.257Z,140.00
2022-07-29T03:24:31.887Z,148.00
2022-07-29T03:25:31.049Z,160.00
2022-07-29T03:26:31.207Z,168.00
2022-07-29T03:27:31.388Z,180.00
2022-07-29T03:28:31.588Z,196.00
2022-07-29T03:29:33.813Z,208.00
2022-07-29T03:30:31.880Z,224.00
2022-07-29T03:31:32.147Z,236.00
2022-07-29T03:32:32.227Z,252.00
2022-07-29T03:33:32.392Z,260.00
2022-07-29T03:34:32.579Z,276.00
2022-07-29T03:35:32.760Z,288.00
2022-07-29T03:36:32.909Z,312.00
2022-07-29T03:37:33.091Z,332.00
2022-07-29T03:38:33.239Z,360.00
2022-07-29T03:39:33.449Z,392.00
2022-07-29T03:40:33.619Z,424.00
2022-07-29T03:41:33.810Z,460.00
2022-07-29T03:42:34.527Z,496.00
2022-07-29T03:43:34.170Z,536.00
2022-07-29T03:44:34.367Z,572.00
2022-07-29T03:45:34.538Z,616.00
2022-07-29T03:46:34.808Z,656.00
2022-07-29T03:47:50.445Z,696.00
2022-07-29T03:48:36.104Z,760.00
2022-07-29T03:49:35.234Z,812.00
2022-07-29T03:50:35.372Z,820.00
2022-07-29T03:51:35.559Z,836.00
2022-07-29T03:52:35.749Z,876.00
2022-07-29T03:53:35.947Z,924.00
2022-07-29T03:54:36.140Z,964.00
2022-07-29T03:55:36.310Z,996.00
2022-07-29T03:56:36.491Z,1024.00
2022-07-29T03:57:36.690Z,1056.00
2022-07-29T03:58:36.850Z,1088.00
2022-07-29T03:59:37.030Z,1116.00
2022-07-29T04:00:37.193Z,1140.00
2022-07-29T04:01:37.434Z,1164.00
2022-07-29T04:02:37.533Z,1188.00
2022-07-29T04:03:37.724Z,1208.00
2022-07-29T04:04:37.871Z,1228.00
2022-07-29T04:05:38.060Z,1240.00
2022-07-29T04:06:38.218Z,1248.00
2022-07-29T04:07:38.381Z,1260.00
2022-07-29T04:08:38.542Z,1276.00
2022-07-29T04:09:38.719Z,1300.00
2022-07-29T04:10:38.880Z,1316.00
2022-07-29T04:12:01.704Z,1336.00
2022-07-29T04:12:40.200Z,1368.00
2022-07-29T04:13:39.392Z,1400.00
2022-07-29T04:14:39.590Z,1448.00
2022-07-29T04:15:39.804Z,1528.00
2022-07-29T04:16:39.909Z,1584.00
2022-07-29T04:17:40.090Z,1552.00
2022-07-29T04:18:40.272Z,1560.00
2022-07-29T04:19:40.470Z,1600.00
2022-07-29T04:20:40.613Z,1656.00
2022-07-29T04:21:40.791Z,1708.00
2022-07-29T04:22:40.981Z,1728.00
2022-07-29T04:23:47.908Z,1704.00
2022-07-29T04:24:44.420Z,1728.00
2022-07-29T04:25:41.480Z,1756.00
2022-07-29T04:26:41.660Z,1804.00
2022-07-29T04:27:41.841Z,1868.00
2022-07-29T04:28:42.021Z,1944.00
2022-07-29T04:29:57.165Z,2020.00
2022-07-29T04:30:43.481Z,2084.00
2022-07-29T04:31:42.632Z,2148.00
2022-07-29T04:32:42.721Z,2216.00
2022-07-29T04:33:42.912Z,2296.00
2022-07-29T04:34:43.104Z,2388.00
2022-07-29T04:35:45.808Z,2516.00
2022-07-29T04:36:44.402Z,2664.00
2022-07-29T04:37:43.591Z,2844.00
2022-07-29T04:38:43.779Z,3060.00
2022-07-29T04:39:43.972Z,3312.00
2022-07-29T04:40:44.124Z,3584.00
2022-07-29T04:41:44.302Z,3896.00
2022-07-29T04:42:46.323Z,4172.00
2022-07-29T04:43:44.662Z,4356.00
2022-07-29T04:44:44.861Z,4432.00
2022-07-29T04:45:45.033Z,4412.00
2022-07-29T04:46:45.282Z,4316.00
2022-07-29T04:47:45.402Z,4172.00
2022-07-29T04:48:45.616Z,3976.00
2022-07-29T04:49:45.772Z,3800.00
2022-07-29T04:50:45.933Z,3668.00
2022-07-29T04:51:46.112Z,3612.00
2022-07-29T04:52:46.304Z,3620.00
2022-07-29T04:53:46.491Z,3656.00
2022-07-29T04:54:46.683Z,3712.00
2022-07-29T04:55:46.864Z,3796.00
2022-07-29T04:56:47.047Z,3896.00
2022-07-29T04:57:47.221Z,4004.00
2022-07-29T04:58:47.392Z,4124.00
2022-07-29T04:59:47.604Z,4208.00
2022-07-29T05:00:47.734Z,4288.00
2022-07-29T05:01:48.008Z,4300.00
2022-07-29T05:02:48.145Z,4272.00
2022-07-29T05:03:48.273Z,4184.00
2022-07-29T05:04:48.476Z,4132.00
2022-07-29T05:05:48.614Z,4036.00
2022-07-29T05:06:48.794Z,3992.00
2022-07-29T05:07:48.981Z,3928.00
2022-07-29T05:08:49.167Z,3844.00
2022-07-29T05:09:49.363Z,3760.00
2022-07-29T05:10:49.509Z,3684.00
2022-07-29T05:11:49.691Z,3596.00
2022-07-29T05:12:49.863Z,3528.00
2022-07-29T05:13:50.053Z,3496.00
2022-07-29T05:14:50.234Z,3476.00
2022-07-29T05:15:50.494Z,3468.00
2022-07-29T05:16:50.594Z,3472.00
2022-07-29T05:17:50.774Z,3492.00
2022-07-29T05:18:50.954Z,3544.00
2022-07-29T05:19:51.155Z,3660.00
2022-07-29T05:20:51.295Z,3828.00
2022-07-29T05:21:51.484Z,4028.00
2022-07-29T05:22:51.664Z,4232.00
2022-07-29T05:23:51.844Z,4460.00
2022-07-29T05:24:52.036Z,4700.00
2022-07-29T05:25:52.194Z,4972.00
2022-07-29T05:26:52.375Z,5268.00
2022-07-29T05:27:52.583Z,5640.00
2022-07-29T05:28:52.714Z,6068.00
2022-07-29T05:29:52.921Z,6492.00
2022-07-29T05:30:53.095Z,6872.00
2022-07-29T05:31:53.215Z,7204.00
2022-07-29T05:32:53.404Z,7544.00
2022-07-29T05:33:53.585Z,7888.00
2022-07-29T05:34:53.794Z,8380.00
2022-07-29T05:35:58.518Z,8904.00
2022-07-29T05:36:55.125Z,9740.00
2022-07-29T05:37:54.286Z,10016.00
2022-07-29T05:38:54.436Z,9240.00
2022-07-29T05:39:56.565Z,8908.00
2022-07-29T05:40:54.809Z,8800.00
2022-07-29T05:41:55.002Z,8960.00
2022-07-29T05:42:55.168Z,8664.00
2022-07-29T05:43:55.355Z,8904.00
2022-07-29T05:44:55.569Z,9128.00
2022-07-29T05:45:55.751Z,9460.00
2022-07-29T05:46:55.877Z,10120.00
2022-07-29T05:47:56.066Z,10032.00
2022-07-29T05:48:56.286Z,9680.00
2022-07-29T05:49:56.415Z,8288.00
2022-07-29T05:50:56.559Z,6268.00
2022-07-29T05:51:56.736Z,5604.00
2022-07-29T05:52:56.922Z,4972.00
2022-07-29T05:53:57.098Z,4300.00
2022-07-29T05:54:57.307Z,4000.00
2022-07-29T05:55:57.455Z,3892.00
2022-07-29T05:56:57.628Z,3872.00
2022-07-29T05:57:57.808Z,3920.00
2022-07-29T05:58:57.991Z,4024.00
2022-07-29T05:59:58.197Z,4220.00
2022-07-29T06:00:58.400Z,4488.00
2022-07-29T06:01:58.686Z,4832.00
2022-07-29T06:02:58.668Z,5268.00
2022-07-29T06:03:58.902Z,5672.00
2022-07-29T06:04:59.100Z,6056.00
2022-07-29T06:05:59.215Z,6388.00
2022-07-29T06:06:59.388Z,6752.00
2022-07-29T06:07:59.578Z,7068.00
2022-07-29T06:08:59.763Z,7352.00
2022-07-29T06:10:00.992Z,7580.00
2022-07-29T06:11:00.140Z,7692.00
2022-07-29T06:12:00.328Z,7808.00
2022-07-29T06:13:00.509Z,8076.00
2022-07-29T06:14:00.689Z,8064.00
2022-07-29T06:15:00.880Z,7936.00
2022-07-29T06:16:01.106Z,7936.00
2022-07-29T06:17:01.231Z,7884.00
2022-07-29T06:18:02.464Z,7884.00
2022-07-29T06:19:01.578Z,8012.00
2022-07-29T06:20:01.779Z,8124.00
2022-07-29T06:21:01.910Z,8276.00
2022-07-29T06:22:02.120Z,8444.00
2022-07-29T06:23:02.251Z,8584.00
2022-07-29T06:24:02.452Z,8828.00
2022-07-29T06:25:02.641Z,9052.00
2022-07-29T06:26:02.786Z,9384.00
2022-07-29T06:27:02.963Z,10004.00
2022-07-29T06:28:03.132Z,11044.00
2022-07-29T06:29:03.293Z,10792.00
2022-07-29T06:30:03.470Z,12452.00
2022-07-29T06:31:03.702Z,13244.00
2022-07-29T06:32:03.800Z,11784.00
2022-07-29T06:33:03.972Z,11464.00
2022-07-29T06:34:04.133Z,11300.00
2022-07-29T06:35:32.013Z,11440.00
2022-07-29T06:36:05.483Z,11760.00
2022-07-29T06:37:04.652Z,12052.00
2022-07-29T06:38:09.566Z,12320.00
2022-07-29T06:39:05.981Z,12688.00
2022-07-29T06:40:05.163Z,13732.00
2022-07-29T06:41:05.332Z,20960.00
2022-07-29T06:42:05.512Z,25152.00
2022-07-29T06:43:05.687Z,24064.00
2022-07-29T06:44:05.862Z,26912.00
2022-07-29T06:45:09.286Z,19872.00
2022-07-29T06:46:06.291Z,18176.00
2022-07-29T06:47:06.383Z,16960.00
2022-07-29T06:48:06.575Z,15804.00
2022-07-29T06:49:06.792Z,15164.00
2022-07-29T06:50:07.756Z,17632.00
2022-07-29T06:51:07.071Z,15304.00
2022-07-29T06:52:07.254Z,13664.00
2022-07-29T06:53:07.425Z,12796.00
2022-07-29T06:54:07.584Z,13084.00
2022-07-29T06:55:07.765Z,14452.00
2022-07-29T06:56:07.924Z,11156.00
2022-07-29T06:57:08.107Z,11732.00
2022-07-29T06:58:08.264Z,12368.00
2022-07-29T06:59:08.435Z,11348.00
2022-07-29T07:00:08.617Z,12936.00
2022-07-29T07:01:08.846Z,15912.00
2022-07-29T07:02:09.044Z,17760.00
2022-07-29T07:03:09.126Z,15876.00
2022-07-29T07:04:09.316Z,17760.00
2022-07-29T07:05:09.515Z,17600.00
2022-07-29T07:06:13.251Z,18144.00
2022-07-29T07:07:10.835Z,20096.00
2022-07-29T07:08:10.022Z,22432.00
2022-07-29T07:09:10.199Z,18304.00
2022-07-29T07:10:10.396Z,17152.00
2022-07-29T07:11:10.546Z,16132.00
2022-07-29T07:12:10.717Z,15980.00
2022-07-29T07:13:10.907Z,16252.00
2022-07-29T07:14:11.081Z,13816.00
2022-07-29T07:15:11.248Z,12188.00
2022-07-29T07:16:11.442Z,11368.00
2022-07-29T07:17:11.598Z,10428.00
2022-07-29T07:18:11.749Z,9804.00
2022-07-29T07:19:11.937Z,9564.00
2022-07-29T07:20:12.356Z,10452.00
2022-07-29T07:21:12.299Z,11904.00
2022-07-29T07:22:13.469Z,11068.00
2022-07-29T07:23:12.639Z,9800.00
2022-07-29T07:24:13.005Z,9376.00
2022-07-29T07:25:13.030Z,8964.00
2022-07-29T07:26:13.188Z,8652.00
2022-07-29T07:27:13.360Z,8768.00
2022-07-29T07:28:13.538Z,8716.00
2022-07-29T07:29:13.720Z,8700.00
2022-07-29T07:30:13.910Z,9160.00
2022-07-29T07:31:14.088Z,12456.00
2022-07-29T07:32:14.421Z,22656.00
2022-07-29T07:33:14.440Z,27168.00
2022-07-29T07:34:14.880Z,22688.00
2022-07-29T07:35:14.790Z,21376.00
2022-07-29T07:36:14.932Z,21024.00
2022-07-29T07:37:15.138Z,27456.00
2022-07-29T07:38:15.301Z,21280.00
2022-07-29T07:39:15.483Z,19872.00
2022-07-29T07:40:18.758Z,16576.00
2022-07-29T07:41:15.854Z,16928.00
2022-07-29T07:42:16.032Z,16112.00
2022-07-29T07:43:16.212Z,12508.00
2022-07-29T07:44:16.415Z,12672.00
2022-07-29T07:45:16.916Z,18880.00
2022-07-29T07:46:16.775Z,31584.00
2022-07-29T07:47:16.890Z,32480.00
2022-07-29T07:48:17.115Z,32704.00
2022-07-29T07:49:17.320Z,33472.00
2022-07-29T07:50:19.037Z,34464.00
2022-07-29T07:51:17.623Z,33792.00
2022-07-29T07:52:17.802Z,31840.00
2022-07-29T07:53:17.985Z,36256.00
2022-07-29T07:54:20.526Z,36832.00
2022-07-29T07:55:18.345Z,36192.00
2022-07-29T07:56:18.484Z,35456.00
2022-07-29T07:57:18.678Z,37856.00
2022-07-29T07:58:18.845Z,39840.00
2022-07-29T07:59:19.044Z,39008.00
2022-07-29T08:00:19.229Z,43840.00
2022-07-29T08:01:19.462Z,44544.00
2022-07-29T08:02:19.616Z,44000.00
2022-07-29T08:03:19.725Z,45664.00
2022-07-29T08:04:23.594Z,46016.00
2022-07-29T08:05:21.096Z,32544.00
2022-07-29T08:06:20.252Z,33088.00
2022-07-29T08:07:20.428Z,37696.00
2022-07-29T08:08:20.608Z,36320.00
2022-07-29T08:09:29.275Z,37664.00
2022-07-29T08:10:21.970Z,43456.00
2022-07-29T08:11:21.130Z,47296.00
2022-07-29T08:12:21.309Z,48192.00
2022-07-29T08:13:21.489Z,47424.00
2022-07-29T08:14:21.659Z,46432.00
2022-07-29T08:15:21.871Z,49024.00
2022-07-29T08:16:22.086Z,52928.00
2022-07-29T08:17:22.192Z,46656.00
2022-07-29T08:18:22.360Z,41984.00
2022-07-29T08:19:22.549Z,39296.00
2022-07-29T08:20:22.732Z,36224.00
2022-07-29T08:21:22.880Z,42080.00
2022-07-29T08:22:23.056Z,48864.00
2022-07-29T08:23:23.213Z,47040.00
2022-07-29T08:24:23.396Z,44864.00
2022-07-29T08:25:23.596Z,44800.00
2022-07-29T08:26:23.736Z,47008.00
2022-07-29T08:27:42.383Z,49568.00
2022-07-29T08:28:25.961Z,50368.00
2022-07-29T08:29:24.274Z,53088.00
2022-07-29T08:30:24.456Z,55392.00
2022-07-29T08:31:24.699Z,56160.00
2022-07-29T08:32:50.926Z,61920.00
2022-07-29T08:33:26.004Z,66368.00
2022-07-29T08:34:25.687Z,68128.00
2022-07-29T08:35:25.346Z,67488.00
2022-07-29T08:36:25.519Z,67456.00
2022-07-29T08:37:25.706Z,53376.00
2022-07-29T08:38:25.878Z,68224.00
2022-07-29T08:39:26.066Z,37600.00
2022-07-29T08:40:31.853Z,69408.00
2022-07-29T08:41:27.407Z,65344.00
2022-07-29T08:42:26.567Z,69024.00
2022-07-29T08:43:26.739Z,69152.00
2022-07-29T08:44:30.497Z,66976.00
2022-07-29T08:45:27.171Z,67936.00
2022-07-29T08:46:27.298Z,62784.00
2022-07-29T08:47:27.479Z,61152.00
2022-07-29T08:48:27.652Z,57792.00
2022-07-29T08:49:27.861Z,63168.00
2022-07-29T08:50:28.020Z,59968.00
2022-07-29T08:51:28.210Z,39584.00
2022-07-29T08:52:28.380Z,45888.00
2022-07-29T08:53:28.560Z,49280.00
2022-07-29T08:54:28.751Z,37152.00
2022-07-29T08:55:29.059Z,53312.00
2022-07-29T08:56:29.089Z,70944.00
2022-07-29T08:57:29.262Z,66912.00
2022-07-29T08:58:29.443Z,47616.00
2022-07-29T08:59:29.632Z,27584.00
2022-07-29T09:00:29.843Z,25664.00
2022-07-29T09:01:36.033Z,21120.00
2022-07-29T09:02:31.163Z,40160.00
2022-07-29T09:03:30.371Z,36448.00
2022-07-29T09:04:30.534Z,46144.00
2022-07-29T09:05:30.746Z,50592.00
2022-07-29T09:06:30.885Z,49920.00
2022-07-29T09:07:34.546Z,29280.00
2022-07-29T09:08:31.235Z,20704.00
2022-07-29T09:09:31.424Z,27232.00
2022-07-29T09:10:31.625Z,45888.00
2022-07-29T09:11:31.783Z,36896.00
2022-07-29T09:12:36.138Z,34784.00
2022-07-29T09:13:33.128Z,25920.00
2022-07-29T09:14:32.314Z,19904.00
2022-07-29T09:15:32.509Z,16800.00
2022-07-29T09:16:52.170Z,16580.00
2022-07-29T09:17:33.929Z,17536.00
2022-07-29T09:18:33.027Z,21152.00
2022-07-29T09:19:33.219Z,21504.00
2022-07-29T09:20:33.397Z,23232.00
2022-07-29T09:21:33.588Z,23680.00
2022-07-29T09:22:35.117Z,19840.00
2022-07-29T09:23:33.948Z,24128.00
2022-07-29T09:24:34.119Z,19360.00
2022-07-29T09:25:34.321Z,18432.00
2022-07-29T09:26:34.459Z,19360.00
2022-07-29T09:27:34.651Z,21280.00
2022-07-29T09:28:34.820Z,24352.00
2022-07-29T09:29:36.415Z,22688.00
2022-07-29T09:30:35.211Z,29280.00
2022-07-29T09:31:35.412Z,28448.00
2022-07-29T09:32:35.511Z,24864.00
2022-07-29T09:33:35.705Z,21120.00
2022-07-29T09:34:35.877Z,19456.00
2022-07-29T09:35:36.161Z,19744.00
2022-07-29T09:36:36.242Z,18432.00
2022-07-29T09:37:36.423Z,18688.00
2022-07-29T09:38:36.701Z,19552.00
2022-07-29T09:39:36.782Z,21376.00
2022-07-29T09:40:36.963Z,22080.00
2022-07-29T09:41:37.144Z,30144.00
2022-07-29T09:42:37.314Z,43776.00
2022-07-29T09:43:37.494Z,69792.00
2022-07-29T09:44:37.673Z,67328.00
2022-07-29T09:45:37.874Z,60032.00
2022-07-29T09:46:38.098Z,26400.00
2022-07-29T09:47:38.234Z,29536.00
2022-07-29T09:48:38.495Z,36416.00
2022-07-29T09:49:38.594Z,43648.00
2022-07-29T09:50:38.786Z,31904.00
2022-07-29T09:51:39.062Z,28960.00
2022-07-29T09:52:39.086Z,27264.00
2022-07-29T09:53:39.297Z,40160.00
2022-07-29T09:54:39.436Z,26112.00
2022-07-29T09:55:39.637Z,25280.00
2022-07-29T09:56:39.781Z,20928.00
2022-07-29T09:57:39.968Z,19552.00
2022-07-29T09:58:40.147Z,21728.00
2022-07-29T09:59:50.191Z,26368.00
2022-07-29T10:00:41.552Z,22944.00
2022-07-29T10:01:40.689Z,17728.00
2022-07-29T10:02:40.859Z,16676.00
2022-07-29T10:03:41.107Z,15800.00
2022-07-29T10:04:41.237Z,15572.00
2022-07-29T10:05:41.428Z,15568.00
2022-07-29T10:06:41.568Z,15580.00
2022-07-29T10:07:41.737Z,15620.00
2022-07-29T10:08:41.931Z,15448.00
2022-07-29T10:09:42.078Z,15252.00
2022-07-29T10:10:42.271Z,15208.00
2022-07-29T10:11:49.365Z,15160.00
2022-07-29T10:12:43.621Z,14936.00
2022-07-29T10:13:42.818Z,14800.00
2022-07-29T10:14:42.981Z,14864.00
2022-07-29T10:15:43.191Z,16928.00
2022-07-29T10:16:43.370Z,31744.00
2022-07-29T10:17:43.582Z,41792.00
2022-07-29T10:18:43.674Z,35456.00
2022-07-29T10:19:43.866Z,44032.00
2022-07-29T10:20:44.052Z,33568.00
2022-07-29T10:21:44.233Z,24224.00
2022-07-29T10:22:53.146Z,21632.00
2022-07-29T10:23:47.089Z,20544.00
2022-07-29T10:24:44.770Z,19744.00
2022-07-29T10:25:46.504Z,19328.00
2022-07-29T10:26:45.074Z,18112.00
2022-07-29T10:27:45.255Z,18464.00
2022-07-29T10:28:45.425Z,23040.00
2022-07-29T10:29:45.615Z,24256.00
2022-07-29T10:30:45.805Z,22304.00
2022-07-29T10:31:46.004Z,21600.00
2022-07-29T10:32:46.138Z,20896.00
2022-07-29T10:33:46.340Z,20320.00
2022-07-29T10:34:46.507Z,20352.00
2022-07-29T10:35:46.706Z,20576.00
2022-07-29T10:36:46.847Z,20320.00
2022-07-29T10:37:47.037Z,19168.00
2022-07-29T10:38:48.160Z,18240.00
2022-07-29T10:39:49.015Z,16468.00
2022-07-29T10:40:47.598Z,15508.00
2022-07-29T10:41:47.768Z,14296.00
2022-07-29T10:42:47.919Z,13152.00
2022-07-29T10:43:48.108Z,12028.00
2022-07-29T10:44:48.289Z,11284.00
2022-07-29T10:45:48.479Z,10712.00
2022-07-29T10:46:48.704Z,10216.00
2022-07-29T10:47:48.829Z,9828.00
2022-07-29T10:48:49.040Z,9016.00
2022-07-29T10:49:49.197Z,8760.00
2022-07-29T10:50:49.339Z,9316.00
2022-07-29T10:51:49.531Z,9740.00
2022-07-29T10:52:49.710Z,9764.00
2022-07-29T10:53:49.902Z,9552.00
2022-07-29T10:54:50.062Z,9336.00
2022-07-29T10:55:50.243Z,9016.00
2022-07-29T10:56:50.420Z,8720.00
2022-07-29T10:57:54.607Z,8492.00
2022-07-29T10:58:52.850Z,8012.00
2022-07-29T10:59:53.130Z,8032.00
2022-07-29T11:00:51.111Z,7996.00
2022-07-29T11:01:53.516Z,7892.00
2022-07-29T11:02:51.571Z,8824.00
2022-07-29T11:03:53.519Z,9016.00
2022-07-29T11:04:51.842Z,9108.00
2022-07-29T11:05:51.993Z,9104.00
2022-07-29T11:06:52.172Z,9248.00
2022-07-29T11:07:52.332Z,9236.00
2022-07-29T11:08:52.513Z,9360.00
2022-07-29T11:09:52.713Z,9280.00
2022-07-29T11:10:52.886Z,9572.00
2022-07-29T11:11:53.049Z,9392.00
2022-07-29T11:12:53.207Z,9196.00
2022-07-29T11:13:53.399Z,8724.00
2022-07-29T11:14:53.583Z,9068.00
2022-07-29T11:15:53.734Z,9136.00
2022-07-29T11:16:53.913Z,8308.00
2022-07-29T11:17:54.095Z,8072.00
2022-07-29T11:18:54.265Z,7980.00
2022-07-29T11:19:54.455Z,7740.00
2022-07-29T11:20:54.596Z,7628.00
2022-07-29T11:22:00.450Z,7716.00
2022-07-29T11:22:55.936Z,7688.00
2022-07-29T11:23:55.128Z,7736.00
2022-07-29T11:24:55.326Z,7476.00
2022-07-29T11:25:55.481Z,7276.00
2022-07-29T11:27:00.432Z,7060.00
2022-07-29T11:27:56.817Z,6320.00
2022-07-29T11:28:56.043Z,6268.00
2022-07-29T11:29:56.176Z,6508.00
2022-07-29T11:30:56.346Z,6660.00
2022-07-29T11:31:56.775Z,6448.00
2022-07-29T11:32:56.686Z,6580.00
2022-07-29T11:33:57.031Z,6472.00
2022-07-29T11:34:57.078Z,6292.00
2022-07-29T11:36:00.767Z,6136.00
2022-07-29T11:36:58.622Z,5928.00
2022-07-29T11:37:57.816Z,5724.00
2022-07-29T11:38:57.738Z,5412.00
2022-07-29T11:40:02.027Z,5376.00
2022-07-29T11:40:58.090Z,5404.00
2022-07-29T11:42:03.098Z,5384.00
2022-07-29T11:42:59.440Z,5360.00
2022-07-29T11:43:58.619Z,5332.00
2022-07-29T11:44:58.822Z,5316.00
2022-07-29T11:45:59.979Z,5312.00
2022-07-29T11:46:59.151Z,5308.00
2022-07-29T11:48:05.293Z,5280.00
2022-07-29T11:49:00.577Z,5256.00
2022-07-29T11:49:59.935Z,5268.00
2022-07-29T11:51:00.021Z,5324.00
2022-07-29T11:52:00.300Z,5408.00
2022-07-29T11:53:00.210Z,5484.00
2022-07-29T11:54:05.187Z,5560.00
2022-07-29T11:55:09.844Z,5648.00
2022-07-29T11:56:02.712Z,5736.00
2022-07-29T11:57:00.952Z,5756.00
2022-07-29T11:58:04.399Z,5588.00
2022-07-29T11:59:01.303Z,5812.00
2022-07-29T12:00:09.445Z,6036.00
2022-07-29T12:02:32.948Z,6356.00
2022-07-29T12:03:03.051Z,6660.00
2022-07-29T12:04:02.207Z,6976.00
2022-07-29T12:05:10.680Z,7852.00
2022-07-29T12:06:03.539Z,8620.00
2022-07-29T12:07:04.675Z,8828.00
2022-07-29T12:08:02.844Z,8792.00
2022-07-29T12:09:03.035Z,8908.00
2022-07-29T12:10:03.235Z,8864.00
2022-07-29T12:11:03.394Z,8448.00
2022-07-29T12:12:05.585Z,8516.00
2022-07-29T12:13:03.775Z,8408.00
2022-07-29T12:14:03.956Z,8120.00
2022-07-29T12:15:04.136Z,7988.00
2022-07-29T12:16:04.411Z,8176.00
2022-07-29T12:17:04.476Z,8524.00
2022-07-29T12:18:04.637Z,8440.00
2022-07-29T12:19:04.832Z,8468.00
2022-07-29T12:20:04.991Z,8400.00